createdAt,value
2022-10-21T00:02:14.570Z,4.71
2022-10-21T00:04:41.631Z,4.69
2022-10-21T00:07:08.800Z,4.75
2022-10-21T00:09:35.762Z,4.91
2022-10-21T00:12:02.740Z,4.75
2022-10-21T00:14:29.863Z,4.83
2022-10-21T00:17:00.968Z,4.81
2022-10-21T00:19:28.536Z,4.57
2022-10-21T00:21:55.509Z,4.87
2022-10-21T00:24:22.560Z,4.88
2022-10-21T00:26:50.733Z,4.71
2022-10-21T00:29:17.772Z,4.82
2022-10-21T00:31:44.807Z,4.90
2022-10-21T00:34:11.797Z,4.90
2022-10-21T00:36:38.950Z,4.76
2022-10-21T00:39:05.995Z,4.86
2022-10-21T00:41:33.188Z,4.96
2022-10-21T00:44:08.558Z,4.91
2022-10-21T00:46:54.103Z,5.01
2022-10-21T00:49:23.909Z,4.37
2022-10-21T00:51:56.336Z,3.83
2022-10-21T00:54:25.031Z,4.90
2022-10-21T00:56:55.249Z,4.97
2022-10-21T00:59:26.135Z,4.93
2022-10-21T01:01:54.056Z,4.93
2022-10-21T01:04:22.404Z,4.88
2022-10-21T01:06:50.053Z,4.72
2022-10-21T01:09:20.075Z,4.47
2022-10-21T01:11:48.239Z,4.90
2022-10-21T01:14:32.468Z,4.97
2022-10-21T01:16:59.437Z,4.89
2022-10-21T01:20:03.811Z,5.10
2022-10-21T01:22:49.009Z,5.14
2022-10-21T01:25:33.941Z,5.14
2022-10-21T01:28:28.841Z,5.15
2022-10-21T01:30:57.962Z,5.06
2022-10-21T01:34:07.502Z,5.12
2022-10-21T01:36:47.941Z,5.08
2022-10-21T01:39:39.148Z,5.07
2022-10-21T01:42:25.950Z,5.02
2022-10-21T01:45:15.724Z,5.09
2022-10-21T01:48:02.101Z,4.99
2022-10-21T01:50:36.461Z,4.99
2022-10-21T01:53:10.007Z,4.75
2022-10-21T01:55:38.700Z,4.91
2022-10-21T01:58:28.517Z,5.01
2022-10-21T02:00:58.867Z,5.03
2022-10-21T02:03:36.197Z,5.07
2022-10-21T02:06:03.969Z,5.07
2022-10-21T02:08:31.291Z,4.45
2022-10-21T02:11:03.231Z,5.01
2022-10-21T02:13:40.399Z,5.05
2022-10-21T02:16:10.279Z,5.15
2022-10-21T02:18:37.423Z,4.97
2022-10-21T02:21:13.712Z,4.84
2022-10-21T02:23:49.173Z,4.76
2022-10-21T02:26:16.430Z,5.05
2022-10-21T02:28:44.502Z,5.05
2022-10-21T02:31:40.269Z,5.04
2022-10-21T02:34:35.196Z,5.09
2022-10-21T02:37:15.065Z,4.37
2022-10-21T02:39:55.538Z,5.08
2022-10-21T02:42:34.236Z,4.98
2022-10-21T02:45:02.647Z,4.74
2022-10-21T02:47:31.631Z,4.50
2022-10-21T02:49:58.692Z,5.06
2022-10-21T02:52:25.848Z,5.10
2022-10-21T02:54:52.853Z,4.58
2022-10-21T02:57:19.968Z,4.78
2022-10-21T02:59:47.074Z,4.82
2022-10-21T03:02:14.217Z,4.22
2022-10-21T03:04:41.166Z,5.07
2022-10-21T03:07:08.309Z,4.82
2022-10-21T03:09:35.335Z,4.78
2022-10-21T03:12:02.409Z,4.97
2022-10-21T03:14:29.458Z,5.03
2022-10-21T03:16:56.542Z,4.75
2022-10-21T03:19:23.620Z,4.93
2022-10-21T03:21:50.738Z,4.77
2022-10-21T03:24:27.793Z,4.83
2022-10-21T03:26:56.481Z,5.06
2022-10-21T03:29:23.660Z,5.06
2022-10-21T03:31:50.716Z,4.85
2022-10-21T03:34:17.956Z,5.04
2022-10-21T03:36:45.016Z,4.99
2022-10-21T03:39:12.412Z,5.03
2022-10-21T03:41:39.844Z,5.03
2022-10-21T03:44:06.990Z,4.98
2022-10-21T03:46:34.022Z,4.33
2022-10-21T03:49:04.472Z,4.89
2022-10-21T03:51:32.977Z,5.09
2022-10-21T03:54:00.071Z,4.98
2022-10-21T03:56:27.327Z,4.80
2022-10-21T03:58:58.529Z,5.01
2022-10-21T04:01:26.650Z,4.98
2022-10-21T04:03:53.822Z,5.04
2022-10-21T04:06:21.202Z,4.79
2022-10-21T04:08:48.658Z,5.06
2022-10-21T04:11:16.009Z,4.07
2022-10-21T04:13:43.169Z,5.10
2022-10-21T04:16:15.326Z,5.06
2022-10-21T04:18:42.870Z,5.08
2022-10-21T04:21:10.467Z,5.03
2022-10-21T04:23:37.800Z,5.03
2022-10-21T04:26:05.930Z,4.52
2022-10-21T04:28:33.177Z,5.04
2022-10-21T04:31:00.368Z,5.02
2022-10-21T04:33:27.631Z,4.84
2022-10-21T04:35:55.831Z,4.80
2022-10-21T04:38:23.738Z,4.59
2022-10-21T04:41:02.695Z,4.73
2022-10-21T04:43:30.433Z,4.88
2022-10-21T04:45:57.946Z,4.63
2022-10-21T04:48:24.965Z,5.00
2022-10-21T04:50:53.489Z,4.78
2022-10-21T04:53:22.303Z,4.89
2022-10-21T04:55:53.536Z,4.85
2022-10-21T04:58:22.393Z,4.43
2022-10-21T05:00:52.822Z,4.64
2022-10-21T05:03:20.854Z,4.34
2022-10-21T05:05:52.101Z,4.07
2022-10-21T05:08:20.587Z,5.02
2022-10-21T05:10:48.010Z,5.10
2022-10-21T05:13:15.635Z,4.74
2022-10-21T05:15:42.719Z,5.15
2022-10-21T05:18:09.730Z,5.36
2022-10-21T05:20:36.866Z,4.91
2022-10-21T05:23:03.965Z,4.74
2022-10-21T05:25:34.142Z,5.47
2022-10-21T05:28:02.026Z,4.94
2022-10-21T05:30:29.176Z,5.44
2022-10-21T05:32:56.290Z,5.49
2022-10-21T05:35:23.307Z,5.38
2022-10-21T05:37:50.323Z,5.44
2022-10-21T05:40:18.610Z,5.40
2022-10-21T05:42:46.038Z,5.30
2022-10-21T05:45:13.507Z,5.59
2022-10-21T05:47:41.588Z,5.45
2022-10-21T05:50:10.971Z,5.43
2022-10-21T05:52:38.668Z,5.44
2022-10-21T05:55:06.722Z,5.06
2022-10-21T05:57:35.113Z,5.61
2022-10-21T06:00:02.409Z,5.28
2022-10-21T06:02:33.490Z,5.62
2022-10-21T06:05:00.503Z,5.63
2022-10-21T06:07:27.441Z,5.74
2022-10-21T06:09:54.979Z,5.84
2022-10-21T06:12:22.736Z,5.92
2022-10-21T06:14:49.837Z,6.00
2022-10-21T06:17:17.104Z,5.84
2022-10-21T06:19:47.272Z,5.77
2022-10-21T06:22:17.292Z,6.08
2022-10-21T06:24:44.607Z,6.02
2022-10-21T06:27:11.852Z,6.10
2022-10-21T06:29:41.350Z,5.98
2022-10-21T06:32:08.352Z,5.82
2022-10-21T06:34:35.340Z,6.06
2022-10-21T06:37:02.484Z,5.34
2022-10-21T06:39:29.712Z,5.94
2022-10-21T06:41:56.660Z,5.96
2022-10-21T06:44:39.862Z,6.15
2022-10-21T06:47:06.995Z,6.29
2022-10-21T06:49:34.123Z,5.93
2022-10-21T06:52:01.433Z,6.09
2022-10-21T06:54:28.472Z,5.56
2022-10-21T06:56:55.775Z,6.35
2022-10-21T06:59:22.898Z,6.30
2022-10-21T07:02:00.314Z,6.33
2022-10-21T07:04:28.996Z,6.39
2022-10-21T07:06:55.932Z,6.61
2022-10-21T07:09:23.103Z,6.66
2022-10-21T07:11:51.485Z,6.69
2022-10-21T07:14:18.571Z,6.50
2022-10-21T07:16:45.631Z,6.87
2022-10-21T07:19:12.830Z,6.97
2022-10-21T07:21:40.093Z,6.90
2022-10-21T07:24:07.344Z,6.65
2022-10-21T07:26:35.112Z,6.83
2022-10-21T07:29:03.183Z,6.54
2022-10-21T07:31:35.029Z,6.88
2022-10-21T07:36:35.771Z,6.71
2022-10-21T07:39:10.175Z,6.20
2022-10-21T07:41:43.739Z,6.87
2022-10-21T07:44:11.253Z,6.96
2022-10-21T07:46:40.139Z,6.72
2022-10-21T07:49:07.681Z,7.07
2022-10-21T07:51:34.753Z,6.47
2022-10-21T07:54:03.061Z,6.92
2022-10-21T07:56:32.836Z,6.15
2022-10-21T07:59:01.716Z,6.29
2022-10-21T08:01:29.135Z,7.01
2022-10-21T08:03:57.640Z,7.05
2022-10-21T08:06:26.301Z,7.10
2022-10-21T08:08:53.679Z,7.07
2022-10-21T08:11:27.329Z,6.99
2022-10-21T08:13:54.651Z,7.02
2022-10-21T08:16:21.885Z,7.05
2022-10-21T08:18:49.286Z,7.30
2022-10-21T08:21:16.814Z,6.53
2022-10-21T08:23:44.384Z,7.35
2022-10-21T08:26:13.745Z,7.03
2022-10-21T08:28:41.031Z,6.57
2022-10-21T08:31:11.263Z,7.43
2022-10-21T08:33:39.279Z,7.40
2022-10-21T08:36:19.361Z,7.25
2022-10-21T08:38:46.921Z,7.52
2022-10-21T08:41:29.146Z,7.60
2022-10-21T08:44:06.929Z,6.97
2022-10-21T08:46:40.813Z,7.68
2022-10-21T08:49:17.771Z,7.56
2022-10-21T08:51:54.331Z,7.63
2022-10-21T08:54:47.027Z,7.65
2022-10-21T08:57:14.495Z,7.60
2022-10-21T08:59:42.860Z,7.72
2022-10-21T09:02:12.807Z,7.74
2022-10-21T09:04:44.119Z,6.28
2022-10-21T09:07:46.195Z,7.82
2022-10-21T09:10:29.013Z,7.62
2022-10-21T09:12:59.210Z,8.11
2022-10-21T09:15:31.766Z,8.04
2022-10-21T09:18:23.669Z,8.24
2022-10-21T09:21:04.773Z,8.17
2022-10-21T09:24:01.650Z,8.18
2022-10-21T09:26:42.043Z,7.53
2022-10-21T09:29:35.627Z,8.15
2022-10-21T09:32:22.653Z,7.92
2022-10-21T09:34:58.019Z,8.46
2022-10-21T09:37:44.837Z,8.03
2022-10-21T09:40:24.295Z,8.66
2022-10-21T09:42:56.097Z,8.57
2022-10-21T09:45:25.422Z,8.64
2022-10-21T09:47:59.141Z,8.70
2022-10-21T09:50:28.441Z,8.71
2022-10-21T09:53:04.951Z,8.81
2022-10-21T09:55:32.481Z,8.82
2022-10-21T09:58:02.782Z,8.67
2022-10-21T10:00:48.558Z,8.98
2022-10-21T10:03:35.605Z,8.88
2022-10-21T10:06:04.695Z,9.02
2022-10-21T10:08:52.006Z,9.04
2022-10-21T10:11:21.932Z,8.90
2022-10-21T10:13:51.721Z,8.60
2022-10-21T10:16:30.901Z,8.64
2022-10-21T10:19:16.247Z,7.92
2022-10-21T10:21:44.508Z,8.86
2022-10-21T10:24:20.271Z,8.88
2022-10-21T10:26:48.640Z,8.79
2022-10-21T10:29:15.511Z,8.91
2022-10-21T10:31:50.595Z,8.79
2022-10-21T10:34:42.382Z,9.04
2022-10-21T10:37:24.569Z,8.72
2022-10-21T10:39:55.760Z,8.71
2022-10-21T10:42:31.912Z,9.05
2022-10-21T10:45:03.412Z,8.86
2022-10-21T10:47:43.206Z,8.85
2022-10-21T10:50:38.221Z,9.37
2022-10-21T10:53:23.599Z,9.41
2022-10-21T10:56:06.614Z,9.48
2022-10-21T10:58:39.430Z,9.51
2022-10-21T11:01:15.882Z,8.35
2022-10-21T11:03:55.209Z,9.30
2022-10-21T11:06:35.535Z,9.40
2022-10-21T11:09:03.031Z,9.30
2022-10-21T11:11:44.977Z,9.23
2022-10-21T11:14:21.769Z,9.30
2022-10-21T11:17:07.417Z,9.23
2022-10-21T11:20:06.292Z,9.25
2022-10-21T11:22:48.602Z,9.04
2022-10-21T11:25:33.524Z,9.07
2022-10-21T11:28:19.066Z,9.04
2022-10-21T11:31:13.286Z,8.95
2022-10-21T11:33:48.056Z,8.86
2022-10-21T11:36:33.721Z,8.74
2022-10-21T11:39:09.536Z,8.79
2022-10-21T11:41:49.603Z,8.12
2022-10-21T11:44:54.488Z,8.75
2022-10-21T11:47:29.578Z,8.63
2022-10-21T11:50:14.761Z,8.58
2022-10-21T11:53:12.625Z,8.49
2022-10-21T11:55:44.641Z,8.38
2022-10-21T11:58:47.056Z,8.48
2022-10-21T12:01:16.704Z,8.42
2022-10-21T12:03:55.491Z,8.43
2022-10-21T12:06:50.311Z,7.45
2022-10-21T12:09:43.399Z,8.44
2022-10-21T12:12:14.848Z,8.35
2022-10-21T12:14:52.953Z,8.07
2022-10-21T12:17:25.583Z,8.45
2022-10-21T12:19:59.477Z,8.45
2022-10-21T12:22:30.813Z,8.32
2022-10-21T12:25:13.427Z,7.91
2022-10-21T12:27:49.757Z,7.56
2022-10-21T12:30:25.092Z,8.36
2022-10-21T12:33:16.786Z,8.46
2022-10-21T12:35:57.708Z,7.94
2022-10-21T12:38:46.299Z,8.47
2022-10-21T12:41:39.928Z,8.46
2022-10-21T12:44:28.180Z,7.84
2022-10-21T12:46:56.559Z,8.51
2022-10-21T12:49:36.009Z,8.36
2022-10-21T12:52:02.937Z,8.32
2022-10-21T12:54:36.749Z,8.10
2022-10-21T12:57:07.808Z,8.21
2022-10-21T12:59:43.010Z,8.09
2022-10-21T13:02:19.466Z,7.73
2022-10-21T13:04:50.218Z,7.59
2022-10-21T13:07:17.183Z,7.93
2022-10-21T13:09:54.031Z,8.18
2022-10-21T13:12:23.878Z,8.19
2022-10-21T13:14:58.576Z,8.10
2022-10-21T13:17:35.170Z,8.20
2022-10-21T13:20:20.137Z,7.23
2022-10-21T13:22:49.861Z,8.07
2022-10-21T13:25:16.983Z,8.04
2022-10-21T13:27:48.947Z,8.03
2022-10-21T13:30:32.540Z,8.08
2022-10-21T13:33:05.080Z,8.02
2022-10-21T13:35:50.193Z,7.53
2022-10-21T13:38:24.420Z,7.90
2022-10-21T13:41:03.709Z,7.81
2022-10-21T13:43:39.804Z,7.87
2022-10-21T13:46:20.002Z,7.83
2022-10-21T13:48:49.241Z,7.79
2022-10-21T13:51:28.373Z,7.83
2022-10-21T13:54:00.001Z,7.77
2022-10-21T13:56:31.004Z,7.53
2022-10-21T13:58:58.510Z,7.65
2022-10-21T14:01:31.727Z,7.43
2022-10-21T14:04:17.284Z,7.67
2022-10-21T14:06:47.812Z,7.48
2022-10-21T14:09:25.521Z,7.67
2022-10-21T14:11:57.503Z,7.17
2022-10-21T14:14:27.173Z,6.79
2022-10-21T14:16:59.783Z,7.34
2022-10-21T14:19:30.679Z,7.71
2022-10-21T14:21:59.889Z,7.62
2022-10-21T14:24:49.165Z,7.80
2022-10-21T14:27:23.914Z,7.68
2022-10-21T14:29:51.442Z,7.50
2022-10-21T14:32:21.889Z,7.74
2022-10-21T14:35:01.536Z,7.71
2022-10-21T14:37:40.532Z,7.67
2022-10-21T14:40:32.613Z,7.82
2022-10-21T14:43:18.538Z,7.74
2022-10-21T14:45:54.057Z,7.44
2022-10-21T14:48:28.808Z,7.78
2022-10-21T14:51:05.827Z,7.78
2022-10-21T14:53:37.862Z,7.86
2022-10-21T14:56:06.892Z,7.54
2022-10-21T14:58:38.636Z,7.80
2022-10-21T15:01:18.432Z,7.80
2022-10-21T15:03:47.134Z,7.66
2022-10-21T15:06:17.651Z,7.87
2022-10-21T15:09:07.807Z,7.61
2022-10-21T15:11:38.553Z,7.81
2022-10-21T15:14:18.236Z,7.83
2022-10-21T15:16:48.294Z,7.75
2022-10-21T15:19:23.496Z,7.09
2022-10-21T15:22:00.796Z,7.81
2022-10-21T15:24:44.883Z,7.55
2022-10-21T15:27:16.455Z,7.66
2022-10-21T15:29:46.153Z,7.28
2022-10-21T15:32:18.935Z,7.52
2022-10-21T15:37:19.125Z,7.31
2022-10-21T15:39:46.172Z,7.50
2022-10-21T15:42:15.737Z,7.56
2022-10-21T15:44:48.618Z,6.94
2022-10-21T15:47:15.742Z,7.30
2022-10-21T15:49:45.970Z,7.36
2022-10-21T15:52:14.226Z,7.44
2022-10-21T15:54:41.744Z,7.59
2022-10-21T15:57:19.138Z,6.58
2022-10-21T15:59:46.942Z,7.46
2022-10-21T16:02:17.431Z,7.56
2022-10-21T16:04:45.180Z,7.00
2022-10-21T16:07:22.158Z,7.39
2022-10-21T16:09:49.478Z,7.63
2022-10-21T16:12:19.668Z,7.38
2022-10-21T16:14:46.735Z,7.71
2022-10-21T16:17:14.188Z,7.68
2022-10-21T16:19:42.115Z,6.08
2022-10-21T16:22:18.620Z,7.24
2022-10-21T16:24:45.764Z,7.54
2022-10-21T16:27:26.309Z,7.65
2022-10-21T16:30:01.968Z,7.67
2022-10-21T16:32:31.574Z,7.65
2022-10-21T16:34:58.478Z,7.50
2022-10-21T16:37:27.513Z,7.36
2022-10-21T16:39:54.699Z,7.28
2022-10-21T16:42:23.191Z,7.40
2022-10-21T16:44:51.238Z,6.96
2022-10-21T16:47:21.889Z,6.95
2022-10-21T16:49:49.390Z,7.33
2022-10-21T16:52:16.871Z,7.50
2022-10-21T16:54:47.926Z,7.30
2022-10-21T16:57:16.113Z,7.45
2022-10-21T16:59:43.029Z,7.48
2022-10-21T17:02:18.339Z,6.61
2022-10-21T17:04:47.168Z,7.01
2022-10-21T17:07:14.347Z,7.33
2022-10-21T17:09:41.318Z,7.49
2022-10-21T17:12:11.254Z,7.27
2022-10-21T17:14:38.420Z,7.57
2022-10-21T17:17:05.438Z,7.54
2022-10-21T17:19:32.428Z,7.52
2022-10-21T17:22:00.395Z,7.51
2022-10-21T17:24:28.049Z,7.36
2022-10-21T17:26:56.295Z,7.47
2022-10-21T17:29:23.905Z,7.06
2022-10-21T17:31:51.822Z,7.28
2022-10-21T17:34:30.941Z,7.03
2022-10-21T17:36:58.599Z,7.02
2022-10-21T17:39:25.777Z,7.42
2022-10-21T17:41:53.163Z,6.21
2022-10-21T17:44:21.004Z,7.38
2022-10-21T17:46:49.664Z,7.06
2022-10-21T17:49:18.248Z,6.57
2022-10-21T17:51:45.585Z,6.10
2022-10-21T17:54:12.549Z,7.26
2022-10-21T17:56:39.635Z,7.18
2022-10-21T17:59:06.668Z,6.91
2022-10-21T18:01:34.237Z,7.13
2022-10-21T18:04:01.610Z,7.38
2022-10-21T18:06:28.685Z,6.73
2022-10-21T18:08:58.585Z,7.09
2022-10-21T18:11:26.097Z,7.29
2022-10-21T18:13:55.241Z,6.99
2022-10-21T18:16:24.054Z,6.66
2022-10-21T18:18:51.339Z,7.11
2022-10-21T18:21:22.142Z,7.15
2022-10-21T18:23:52.525Z,7.25
2022-10-21T18:26:25.508Z,7.11
2022-10-21T18:28:57.307Z,7.20
2022-10-21T18:31:28.279Z,7.24
2022-10-21T18:33:56.228Z,7.17
2022-10-21T18:36:24.284Z,7.25
2022-10-21T18:38:51.604Z,7.24
2022-10-21T18:41:20.986Z,7.09
2022-10-21T18:43:53.142Z,5.51
2022-10-21T18:46:21.223Z,6.56
2022-10-21T18:48:48.815Z,7.15
2022-10-21T18:51:20.877Z,6.76
2022-10-21T18:53:51.567Z,7.28
2022-10-21T18:56:21.146Z,6.91
2022-10-21T18:58:48.393Z,7.15
2022-10-21T19:01:17.338Z,7.17
2022-10-21T19:03:44.998Z,7.18
2022-10-21T19:06:32.384Z,7.39
2022-10-21T19:09:01.319Z,7.32
2022-10-21T19:11:29.262Z,6.71
2022-10-21T19:13:56.499Z,7.40
2022-10-21T19:16:23.838Z,7.12
2022-10-21T19:18:54.855Z,6.68
2022-10-21T19:21:23.981Z,7.24
2022-10-21T19:23:51.624Z,7.38
2022-10-21T19:26:22.461Z,6.96
2022-10-21T19:28:50.738Z,7.20
2022-10-21T19:31:21.434Z,6.93
2022-10-21T19:33:48.461Z,7.42
2022-10-21T19:36:15.468Z,7.13
2022-10-21T19:38:44.653Z,7.39
2022-10-21T19:41:15.745Z,7.39
2022-10-21T19:43:43.011Z,6.77
2022-10-21T19:46:14.696Z,7.30
2022-10-21T19:48:42.315Z,6.69
2022-10-21T19:51:15.358Z,7.02
2022-10-21T19:53:45.099Z,7.23
2022-10-21T19:56:13.263Z,6.85
2022-10-21T19:58:40.756Z,7.29
2022-10-21T20:01:13.996Z,7.29
2022-10-21T20:03:42.954Z,6.65
2022-10-21T20:06:20.624Z,6.61
2022-10-21T20:08:47.622Z,6.62
2022-10-21T20:11:18.018Z,6.84
2022-10-21T20:13:45.965Z,7.42
2022-10-21T20:16:23.529Z,7.24
2022-10-21T20:18:50.821Z,7.36
2022-10-21T20:21:18.826Z,7.35
2022-10-21T20:23:46.021Z,7.30
2022-10-21T20:26:12.996Z,7.23
2022-10-21T20:28:39.951Z,6.53
2022-10-21T20:31:15.459Z,7.05
2022-10-21T20:33:47.943Z,7.26
2022-10-21T20:36:27.366Z,7.14
2022-10-21T20:38:57.016Z,7.10
2022-10-21T20:41:31.120Z,6.92
2022-10-21T20:43:58.059Z,7.08
2022-10-21T20:46:26.035Z,6.60
2022-10-21T20:48:54.801Z,6.98
2022-10-21T20:51:26.976Z,6.75
2022-10-21T20:53:58.090Z,6.93
2022-10-21T20:56:31.022Z,6.83
2022-10-21T20:58:58.459Z,6.94
2022-10-21T21:01:28.918Z,6.55
2022-10-21T21:03:58.306Z,7.01
2022-10-21T21:06:25.764Z,7.01
2022-10-21T21:09:15.145Z,6.82
2022-10-21T21:11:40.024Z,6.43
2022-10-21T21:14:07.146Z,6.84
2022-10-21T21:16:34.341Z,6.05
2022-10-21T21:19:03.677Z,6.64
2022-10-21T21:21:33.701Z,6.87
2022-10-21T21:24:01.062Z,6.78
2022-10-21T21:26:30.904Z,6.96
2022-10-21T21:28:58.422Z,6.94
2022-10-21T21:31:27.556Z,6.99
2022-10-21T21:33:55.094Z,6.92
2022-10-21T21:36:22.578Z,6.61
2022-10-21T21:38:50.592Z,7.10
2022-10-21T21:41:18.506Z,7.21
2022-10-21T21:43:47.277Z,7.26
2022-10-21T21:46:23.944Z,7.21
2022-10-21T21:49:05.130Z,7.03
2022-10-21T21:51:34.925Z,5.99
2022-10-21T21:54:02.436Z,7.17
2022-10-21T21:56:29.709Z,6.79
2022-10-21T21:58:58.172Z,6.91
2022-10-21T22:01:28.126Z,7.50
2022-10-21T22:03:56.617Z,7.00
2022-10-21T22:06:27.523Z,7.52
2022-10-21T22:08:54.907Z,7.53
2022-10-21T22:11:25.242Z,7.22
2022-10-21T22:13:53.003Z,7.44
2022-10-21T22:16:22.297Z,6.73
2022-10-21T22:18:49.553Z,7.37
2022-10-21T22:21:18.300Z,6.79
2022-10-21T22:23:46.643Z,6.94
2022-10-21T22:26:14.599Z,6.77
2022-10-21T22:28:42.182Z,7.23
2022-10-21T22:31:12.275Z,7.12
2022-10-21T22:33:39.909Z,7.01
2022-10-21T22:36:07.749Z,6.94
2022-10-21T22:38:35.139Z,6.89
2022-10-21T22:41:07.079Z,6.73
2022-10-21T22:43:35.521Z,6.88
2022-10-21T22:46:15.315Z,6.10
2022-10-21T22:48:49.146Z,6.33
2022-10-21T22:51:16.466Z,6.47
2022-10-21T22:53:43.473Z,6.51
2022-10-21T22:56:10.535Z,6.67
2022-10-21T22:58:37.586Z,6.58
2022-10-21T23:01:09.515Z,6.64
2022-10-21T23:03:37.266Z,6.54
2022-10-21T23:06:04.618Z,6.65
2022-10-21T23:08:31.791Z,6.56
2022-10-21T23:10:59.086Z,6.64
2022-10-21T23:13:26.618Z,6.67
2022-10-21T23:15:53.591Z,6.69
2022-10-21T23:18:20.708Z,6.46
2022-10-21T23:20:47.805Z,6.65
2022-10-21T23:23:14.905Z,6.84
2022-10-21T23:25:41.924Z,6.83
2022-10-21T23:28:09.997Z,6.67
2022-10-21T23:30:38.323Z,6.84
2022-10-21T23:33:05.456Z,6.95
2022-10-21T23:35:33.078Z,6.92
2022-10-21T23:38:00.228Z,7.02
2022-10-21T23:40:28.309Z,6.89
2022-10-21T23:42:55.320Z,7.08
2022-10-21T23:45:22.394Z,6.01
2022-10-21T23:47:49.891Z,6.86
2022-10-21T23:50:17.026Z,6.77
2022-10-21T23:52:43.965Z,6.84
2022-10-21T23:55:10.921Z,6.62
2022-10-21T23:57:39.416Z,6.95
